sensor_id;sensor_type;location;lat;lon;timestamp;P1;durP1;ratioP1;P2;durP2;ratioP2
43146;SDS011;28752;48.266;7.402;2022-11-02T00:00:24;2.53;;;0.90;;
43146;SDS011;28752;48.266;7.402;2022-11-02T00:02:51;1.42;;;0.73;;
43146;SDS011;28752;48.266;7.402;2022-11-02T00:05:16;1.67;;;0.63;;
43146;SDS011;28752;48.266;7.402;2022-11-02T00:07:47;6.13;;;1.10;;
43146;SDS011;28752;48.266;7.402;2022-11-02T00:10:13;1.30;;;0.70;;
43146;SDS011;28752;48.266;7.402;2022-11-02T00:12:39;1.47;;;0.90;;
43146;SDS011;28752;48.266;7.402;2022-11-02T00:15:04;2.43;;;0.90;;
43146;SDS011;28752;48.266;7.402;2022-11-02T00:17:30;0.73;;;0.60;;
43146;SDS011;28752;48.266;7.402;2022-11-02T00:19:57;1.65;;;0.73;;
43146;SDS011;28752;48.266;7.402;2022-11-02T00:22:23;2.40;;;0.77;;
43146;SDS011;28752;48.266;7.402;2022-11-02T00:24:49;1.40;;;0.75;;
43146;SDS011;28752;48.266;7.402;2022-11-02T00:27:15;1.15;;;0.57;;
43146;SDS011;28752;48.266;7.402;2022-11-02T00:29:40;1.07;;;0.63;;
43146;SDS011;28752;48.266;7.402;2022-11-02T00:32:05;2.23;;;0.90;;
43146;SDS011;28752;48.266;7.402;2022-11-02T00:34:31;0.83;;;0.60;;
43146;SDS011;28752;48.266;7.402;2022-11-02T00:36:56;2.43;;;0.70;;
43146;SDS011;28752;48.266;7.402;2022-11-02T00:39:22;0.80;;;0.50;;
43146;SDS011;28752;48.266;7.402;2022-11-02T00:41:47;2.57;;;1.10;;
43146;SDS011;28752;48.266;7.402;2022-11-02T00:44:12;1.20;;;0.83;;
43146;SDS011;28752;48.266;7.402;2022-11-02T00:46:38;2.80;;;1.27;;
43146;SDS011;28752;48.266;7.402;2022-11-02T00:49:03;3.17;;;0.90;;
43146;SDS011;28752;48.266;7.402;2022-11-02T00:51:28;1.73;;;1.07;;
43146;SDS011;28752;48.266;7.402;2022-11-02T00:53:54;1.80;;;0.53;;
43146;SDS011;28752;48.266;7.402;2022-11-02T00:56:19;2.27;;;0.80;;
43146;SDS011;28752;48.266;7.402;2022-11-02T00:58:44;0.57;;;0.53;;
43146;SDS011;28752;48.266;7.402;2022-11-02T01:01:10;0.87;;;0.50;;
43146;SDS011;28752;48.266;7.402;2022-11-02T01:03:35;1.40;;;0.50;;
43146;SDS011;28752;48.266;7.402;2022-11-02T01:06:07;2.20;;;0.70;;
43146;SDS011;28752;48.266;7.402;2022-11-02T01:08:37;1.98;;;0.75;;
43146;SDS011;28752;48.266;7.402;2022-11-02T01:11:16;0.98;;;0.40;;
43146;SDS011;28752;48.266;7.402;2022-11-02T01:13:44;1.38;;;0.60;;
43146;SDS011;28752;48.266;7.402;2022-11-02T01:16:10;1.55;;;0.47;;
43146;SDS011;28752;48.266;7.402;2022-11-02T01:23:29;2.13;;;0.87;;
43146;SDS011;28752;48.266;7.402;2022-11-02T01:25:56;1.63;;;0.75;;
43146;SDS011;28752;48.266;7.402;2022-11-02T01:28:22;0.83;;;0.40;;
43146;SDS011;28752;48.266;7.402;2022-11-02T01:30:47;1.30;;;0.50;;
43146;SDS011;28752;48.266;7.402;2022-11-02T01:33:13;0.73;;;0.50;;
43146;SDS011;28752;48.266;7.402;2022-11-02T01:35:38;2.57;;;0.67;;
43146;SDS011;28752;48.266;7.402;2022-11-02T01:38:03;0.93;;;0.50;;
43146;SDS011;28752;48.266;7.402;2022-11-02T01:40:38;1.43;;;0.70;;
43146;SDS011;28752;48.266;7.402;2022-11-02T01:43:23;2.47;;;1.27;;
43146;SDS011;28752;48.266;7.402;2022-11-02T01:45:51;2.08;;;0.80;;
43146;SDS011;28752;48.266;7.402;2022-11-02T01:48:31;2.40;;;0.65;;
43146;SDS011;28752;48.266;7.402;2022-11-02T01:51:01;2.83;;;0.90;;
43146;SDS011;28752;48.266;7.402;2022-11-02T01:53:31;1.67;;;0.68;;
43146;SDS011;28752;48.266;7.402;2022-11-02T01:55:59;1.30;;;0.60;;
43146;SDS011;28752;48.266;7.402;2022-11-02T01:58:25;1.75;;;0.80;;
43146;SDS011;28752;48.266;7.402;2022-11-02T02:00:51;2.30;;;0.70;;
43146;SDS011;28752;48.266;7.402;2022-11-02T02:03:17;2.07;;;1.27;;
43146;SDS011;28752;48.266;7.402;2022-11-02T02:05:55;1.60;;;0.65;;
43146;SDS011;28752;48.266;7.402;2022-11-02T02:08:24;0.60;;;0.38;;
43146;SDS011;28752;48.266;7.402;2022-11-02T02:10:54;2.78;;;1.08;;
43146;SDS011;28752;48.266;7.402;2022-11-02T02:13:21;0.85;;;0.45;;
43146;SDS011;28752;48.266;7.402;2022-11-02T02:18:21;1.83;;;0.88;;
43146;SDS011;28752;48.266;7.402;2022-11-02T02:28:57;0.98;;;0.68;;
43146;SDS011;28752;48.266;7.402;2022-11-02T02:31:39;1.25;;;0.70;;
43146;SDS011;28752;48.266;7.402;2022-11-02T02:37:05;1.70;;;0.93;;
43146;SDS011;28752;48.266;7.402;2022-11-02T02:42:29;1.88;;;1.02;;
43146;SDS011;28752;48.266;7.402;2022-11-02T02:45:10;0.73;;;0.50;;
43146;SDS011;28752;48.266;7.402;2022-11-02T02:47:51;1.02;;;0.52;;
43146;SDS011;28752;48.266;7.402;2022-11-02T02:50:25;1.00;;;0.68;;
43146;SDS011;28752;48.266;7.402;2022-11-02T02:52:54;4.38;;;1.02;;
43146;SDS011;28752;48.266;7.402;2022-11-02T02:55:23;0.80;;;0.50;;
43146;SDS011;28752;48.266;7.402;2022-11-02T02:57:55;0.95;;;0.60;;
43146;SDS011;28752;48.266;7.402;2022-11-02T03:00:24;0.98;;;0.50;;
43146;SDS011;28752;48.266;7.402;2022-11-02T03:02:49;0.83;;;0.70;;
43146;SDS011;28752;48.266;7.402;2022-11-02T03:05:27;0.45;;;0.30;;
43146;SDS011;28752;48.266;7.402;2022-11-02T03:07:59;1.38;;;0.70;;
43146;SDS011;28752;48.266;7.402;2022-11-02T03:10:38;3.03;;;0.65;;
43146;SDS011;28752;48.266;7.402;2022-11-02T03:16:00;1.92;;;0.82;;
43146;SDS011;28752;48.266;7.402;2022-11-02T03:21:43;0.55;;;0.50;;
43146;SDS011;28752;48.266;7.402;2022-11-02T03:24:15;2.80;;;0.40;;
43146;SDS011;28752;48.266;7.402;2022-11-02T03:29:25;1.75;;;1.42;;
43146;SDS011;28752;48.266;7.402;2022-11-02T03:32:10;1.05;;;0.50;;
43146;SDS011;28752;48.266;7.402;2022-11-02T03:34:48;1.08;;;0.93;;
43146;SDS011;28752;48.266;7.402;2022-11-02T03:37:21;0.68;;;0.40;;
43146;SDS011;28752;48.266;7.402;2022-11-02T03:39:53;2.25;;;1.02;;
43146;SDS011;28752;48.266;7.402;2022-11-02T03:42:25;1.10;;;0.50;;
43146;SDS011;28752;48.266;7.402;2022-11-02T03:44:54;0.57;;;0.45;;
43146;SDS011;28752;48.266;7.402;2022-11-02T03:47:23;3.47;;;1.33;;
43146;SDS011;28752;48.266;7.402;2022-11-02T03:49:50;1.17;;;0.50;;
43146;SDS011;28752;48.266;7.402;2022-11-02T03:52:20;2.05;;;0.73;;
43146;SDS011;28752;48.266;7.402;2022-11-02T03:54:54;2.13;;;0.75;;
43146;SDS011;28752;48.266;7.402;2022-11-02T03:57:29;1.55;;;0.63;;
43146;SDS011;28752;48.266;7.402;2022-11-02T04:00:18;2.00;;;0.45;;
43146;SDS011;28752;48.266;7.402;2022-11-02T04:02:46;0.50;;;0.40;;
43146;SDS011;28752;48.266;7.402;2022-11-02T04:05:14;3.00;;;0.77;;
43146;SDS011;28752;48.266;7.402;2022-11-02T04:07:40;1.20;;;0.90;;
43146;SDS011;28752;48.266;7.402;2022-11-02T04:10:27;2.92;;;0.50;;
43146;SDS011;28752;48.266;7.402;2022-11-02T04:12:53;1.20;;;0.60;;
43146;SDS011;28752;48.266;7.402;2022-11-02T04:15:37;1.63;;;0.90;;
43146;SDS011;28752;48.266;7.402;2022-11-02T04:18:02;2.93;;;1.70;;
43146;SDS011;28752;48.266;7.402;2022-11-02T04:20:50;2.72;;;0.73;;
43146;SDS011;28752;48.266;7.402;2022-11-02T04:23:16;1.17;;;0.88;;
43146;SDS011;28752;48.266;7.402;2022-11-02T04:26:00;1.17;;;0.50;;
43146;SDS011;28752;48.266;7.402;2022-11-02T04:28:25;1.10;;;0.80;;
43146;SDS011;28752;48.266;7.402;2022-11-02T04:30:51;1.87;;;0.67;;
43146;SDS011;28752;48.266;7.402;2022-11-02T04:33:16;3.83;;;1.33;;
43146;SDS011;28752;48.266;7.402;2022-11-02T04:36:00;3.08;;;0.95;;
43146;SDS011;28752;48.266;7.402;2022-11-02T04:38:27;1.00;;;0.80;;
43146;SDS011;28752;48.266;7.402;2022-11-02T04:41:15;2.25;;;0.90;;
43146;SDS011;28752;48.266;7.402;2022-11-02T04:43:59;2.63;;;0.73;;
43146;SDS011;28752;48.266;7.402;2022-11-02T04:46:29;2.93;;;0.53;;
43146;SDS011;28752;48.266;7.402;2022-11-02T04:48:55;7.13;;;2.50;;
43146;SDS011;28752;48.266;7.402;2022-11-02T04:51:22;3.10;;;0.63;;
43146;SDS011;28752;48.266;7.402;2022-11-02T04:53:49;3.08;;;1.35;;
43146;SDS011;28752;48.266;7.402;2022-11-02T04:56:16;8.05;;;3.20;;
43146;SDS011;28752;48.266;7.402;2022-11-02T04:58:42;3.60;;;2.30;;
43146;SDS011;28752;48.266;7.402;2022-11-02T05:01:09;1.73;;;1.08;;
43146;SDS011;28752;48.266;7.402;2022-11-02T05:03:38;3.90;;;1.45;;
43146;SDS011;28752;48.266;7.402;2022-11-02T05:06:03;0.90;;;0.40;;
43146;SDS011;28752;48.266;7.402;2022-11-02T05:08:29;1.45;;;0.77;;
43146;SDS011;28752;48.266;7.402;2022-11-02T05:10:55;1.80;;;0.90;;
43146;SDS011;28752;48.266;7.402;2022-11-02T05:13:22;2.58;;;1.25;;
43146;SDS011;28752;48.266;7.402;2022-11-02T05:15:48;3.53;;;1.33;;
43146;SDS011;28752;48.266;7.402;2022-11-02T05:18:14;17.25;;;1.30;;
43146;SDS011;28752;48.266;7.402;2022-11-02T05:20:39;2.93;;;1.83;;
43146;SDS011;28752;48.266;7.402;2022-11-02T05:23:05;2.88;;;1.40;;
43146;SDS011;28752;48.266;7.402;2022-11-02T05:25:31;2.67;;;1.67;;
43146;SDS011;28752;48.266;7.402;2022-11-02T05:27:57;3.45;;;1.50;;
43146;SDS011;28752;48.266;7.402;2022-11-02T05:30:22;6.73;;;2.00;;
43146;SDS011;28752;48.266;7.402;2022-11-02T05:32:48;6.13;;;2.40;;
43146;SDS011;28752;48.266;7.402;2022-11-02T05:35:13;2.07;;;0.97;;
43146;SDS011;28752;48.266;7.402;2022-11-02T05:37:39;2.83;;;1.55;;
43146;SDS011;28752;48.266;7.402;2022-11-02T05:40:04;2.00;;;0.90;;
43146;SDS011;28752;48.266;7.402;2022-11-02T05:42:30;3.88;;;2.25;;
43146;SDS011;28752;48.266;7.402;2022-11-02T05:44:56;2.57;;;1.30;;
43146;SDS011;28752;48.266;7.402;2022-11-02T05:47:21;2.07;;;0.67;;
43146;SDS011;28752;48.266;7.402;2022-11-02T05:49:47;1.83;;;1.00;;
43146;SDS011;28752;48.266;7.402;2022-11-02T05:52:12;0.87;;;0.60;;
43146;SDS011;28752;48.266;7.402;2022-11-02T05:54:37;1.60;;;0.70;;
43146;SDS011;28752;48.266;7.402;2022-11-02T05:57:03;2.17;;;1.30;;
43146;SDS011;28752;48.266;7.402;2022-11-02T05:59:28;1.67;;;0.77;;
43146;SDS011;28752;48.266;7.402;2022-11-02T06:01:53;1.80;;;0.90;;
43146;SDS011;28752;48.266;7.402;2022-11-02T06:04:19;1.80;;;0.60;;
43146;SDS011;28752;48.266;7.402;2022-11-02T06:06:44;0.93;;;0.53;;
43146;SDS011;28752;48.266;7.402;2022-11-02T06:09:09;3.00;;;0.50;;
43146;SDS011;28752;48.266;7.402;2022-11-02T06:11:35;0.70;;;0.40;;
43146;SDS011;28752;48.266;7.402;2022-11-02T06:14:01;1.85;;;1.02;;
43146;SDS011;28752;48.266;7.402;2022-11-02T06:16:27;1.02;;;0.75;;
43146;SDS011;28752;48.266;7.402;2022-11-02T06:18:53;1.52;;;1.23;;
43146;SDS011;28752;48.266;7.402;2022-11-02T06:21:19;1.50;;;0.60;;
43146;SDS011;28752;48.266;7.402;2022-11-02T06:23:47;2.33;;;0.80;;
43146;SDS011;28752;48.266;7.402;2022-11-02T06:26:13;2.15;;;1.25;;
43146;SDS011;28752;48.266;7.402;2022-11-02T06:28:39;3.75;;;0.82;;
43146;SDS011;28752;48.266;7.402;2022-11-02T06:31:04;2.67;;;1.30;;
43146;SDS011;28752;48.266;7.402;2022-11-02T06:33:30;3.03;;;1.40;;
43146;SDS011;28752;48.266;7.402;2022-11-02T06:35:56;1.42;;;0.50;;
43146;SDS011;28752;48.266;7.402;2022-11-02T06:38:22;1.95;;;0.80;;
43146;SDS011;28752;48.266;7.402;2022-11-02T06:40:58;2.15;;;1.00;;
43146;SDS011;28752;48.266;7.402;2022-11-02T06:43:26;1.85;;;0.93;;
43146;SDS011;28752;48.266;7.402;2022-11-02T06:45:55;3.42;;;1.30;;
43146;SDS011;28752;48.266;7.402;2022-11-02T06:48:22;2.22;;;0.82;;
43146;SDS011;28752;48.266;7.402;2022-11-02T06:50:48;2.63;;;1.25;;
43146;SDS011;28752;48.266;7.402;2022-11-02T06:53:13;1.57;;;0.90;;
43146;SDS011;28752;48.266;7.402;2022-11-02T06:55:39;1.40;;;0.63;;
43146;SDS011;28752;48.266;7.402;2022-11-02T06:58:04;2.37;;;1.30;;
43146;SDS011;28752;48.266;7.402;2022-11-02T07:00:30;2.03;;;1.07;;
43146;SDS011;28752;48.266;7.402;2022-11-02T07:02:59;2.30;;;0.90;;
43146;SDS011;28752;48.266;7.402;2022-11-02T07:05:25;1.98;;;1.35;;
43146;SDS011;28752;48.266;7.402;2022-11-02T07:07:54;1.30;;;0.80;;
43146;SDS011;28752;48.266;7.402;2022-11-02T07:10:19;2.10;;;1.00;;
43146;SDS011;28752;48.266;7.402;2022-11-02T07:12:45;2.47;;;0.93;;
43146;SDS011;28752;48.266;7.402;2022-11-02T07:15:10;3.17;;;1.30;;
43146;SDS011;28752;48.266;7.402;2022-11-02T07:17:39;2.63;;;1.10;;
43146;SDS011;28752;48.266;7.402;2022-11-02T07:20:05;3.40;;;1.23;;
43146;SDS011;28752;48.266;7.402;2022-11-02T07:22:34;1.70;;;0.98;;
43146;SDS011;28752;48.266;7.402;2022-11-02T07:25:00;2.67;;;1.33;;
43146;SDS011;28752;48.266;7.402;2022-11-02T07:27:25;1.83;;;0.80;;
43146;SDS011;28752;48.266;7.402;2022-11-02T07:29:51;1.37;;;0.77;;
43146;SDS011;28752;48.266;7.402;2022-11-02T07:32:16;2.00;;;0.90;;
43146;SDS011;28752;48.266;7.402;2022-11-02T07:34:41;2.77;;;1.17;;
43146;SDS011;28752;48.266;7.402;2022-11-02T07:37:07;1.57;;;0.60;;
43146;SDS011;28752;48.266;7.402;2022-11-02T07:39:32;1.83;;;0.83;;
43146;SDS011;28752;48.266;7.402;2022-11-02T07:41:57;1.57;;;0.70;;
43146;SDS011;28752;48.266;7.402;2022-11-02T07:44:23;1.60;;;0.70;;
43146;SDS011;28752;48.266;7.402;2022-11-02T07:46:48;1.70;;;0.73;;
43146;SDS011;28752;48.266;7.402;2022-11-02T07:49:13;2.37;;;0.90;;
43146;SDS011;28752;48.266;7.402;2022-11-02T07:51:39;1.70;;;0.63;;
43146;SDS011;28752;48.266;7.402;2022-11-02T07:54:04;1.70;;;0.63;;
43146;SDS011;28752;48.266;7.402;2022-11-02T07:56:30;1.45;;;0.55;;
43146;SDS011;28752;48.266;7.402;2022-11-02T07:58:55;1.27;;;0.80;;
43146;SDS011;28752;48.266;7.402;2022-11-02T08:01:21;2.57;;;0.60;;
43146;SDS011;28752;48.266;7.402;2022-11-02T08:03:47;1.90;;;0.60;;
43146;SDS011;28752;48.266;7.402;2022-11-02T08:06:12;1.30;;;0.40;;
43146;SDS011;28752;48.266;7.402;2022-11-02T08:08:37;0.87;;;0.67;;
43146;SDS011;28752;48.266;7.402;2022-11-02T08:11:04;1.37;;;0.50;;
43146;SDS011;28752;48.266;7.402;2022-11-02T08:13:31;1.45;;;0.63;;
43146;SDS011;28752;48.266;7.402;2022-11-02T08:15:57;7.53;;;4.15;;
43146;SDS011;28752;48.266;7.402;2022-11-02T08:18:23;2.63;;;0.80;;
43146;SDS011;28752;48.266;7.402;2022-11-02T08:20:50;1.27;;;0.85;;
43146;SDS011;28752;48.266;7.402;2022-11-02T08:23:17;4.35;;;1.58;;
43146;SDS011;28752;48.266;7.402;2022-11-02T08:25:44;2.88;;;0.90;;
43146;SDS011;28752;48.266;7.402;2022-11-02T08:30:38;3.15;;;0.40;;
43146;SDS011;28752;48.266;7.402;2022-11-02T08:33:04;0.80;;;0.40;;
43146;SDS011;28752;48.266;7.402;2022-11-02T08:35:32;1.42;;;0.82;;
43146;SDS011;28752;48.266;7.402;2022-11-02T08:37:58;1.27;;;0.52;;
43146;SDS011;28752;48.266;7.402;2022-11-02T08:40:24;0.60;;;0.30;;
43146;SDS011;28752;48.266;7.402;2022-11-02T08:42:54;1.65;;;0.60;;
43146;SDS011;28752;48.266;7.402;2022-11-02T08:45:24;1.15;;;0.38;;
43146;SDS011;28752;48.266;7.402;2022-11-02T08:47:51;2.92;;;1.00;;
43146;SDS011;28752;48.266;7.402;2022-11-02T08:50:16;0.60;;;0.40;;
43146;SDS011;28752;48.266;7.402;2022-11-02T08:52:42;2.57;;;1.00;;
43146;SDS011;28752;48.266;7.402;2022-11-02T08:55:07;1.63;;;0.70;;
43146;SDS011;28752;48.266;7.402;2022-11-02T08:57:42;1.15;;;0.57;;
43146;SDS011;28752;48.266;7.402;2022-11-02T09:00:09;1.95;;;1.05;;
43146;SDS011;28752;48.266;7.402;2022-11-02T09:02:35;1.92;;;1.00;;
43146;SDS011;28752;48.266;7.402;2022-11-02T09:05:00;1.70;;;0.73;;
43146;SDS011;28752;48.266;7.402;2022-11-02T09:07:25;1.10;;;0.67;;
43146;SDS011;28752;48.266;7.402;2022-11-02T09:09:50;0.93;;;0.53;;
43146;SDS011;28752;48.266;7.402;2022-11-02T09:12:16;0.80;;;0.60;;
43146;SDS011;28752;48.266;7.402;2022-11-02T09:14:41;3.30;;;1.50;;
43146;SDS011;28752;48.266;7.402;2022-11-02T09:17:07;2.07;;;1.00;;
43146;SDS011;28752;48.266;7.402;2022-11-02T09:19:32;1.73;;;0.50;;
43146;SDS011;28752;48.266;7.402;2022-11-02T09:21:57;1.13;;;0.70;;
43146;SDS011;28752;48.266;7.402;2022-11-02T09:24:23;0.90;;;0.70;;
43146;SDS011;28752;48.266;7.402;2022-11-02T09:26:50;0.90;;;0.40;;
43146;SDS011;28752;48.266;7.402;2022-11-02T09:29:16;1.17;;;0.70;;
43146;SDS011;28752;48.266;7.402;2022-11-02T09:31:42;1.53;;;0.67;;
43146;SDS011;28752;48.266;7.402;2022-11-02T09:34:07;0.63;;;0.30;;
43146;SDS011;28752;48.266;7.402;2022-11-02T09:36:33;0.93;;;0.52;;
43146;SDS011;28752;48.266;7.402;2022-11-02T09:38:58;2.83;;;0.90;;
43146;SDS011;28752;48.266;7.402;2022-11-02T09:41:25;1.37;;;0.67;;
43146;SDS011;28752;48.266;7.402;2022-11-02T09:44:02;0.90;;;0.43;;
43146;SDS011;28752;48.266;7.402;2022-11-02T09:46:42;1.95;;;0.68;;
43146;SDS011;28752;48.266;7.402;2022-11-02T09:49:11;3.05;;;1.27;;
43146;SDS011;28752;48.266;7.402;2022-11-02T09:51:41;1.35;;;0.55;;
43146;SDS011;28752;48.266;7.402;2022-11-02T09:57:10;1.55;;;0.75;;
43146;SDS011;28752;48.266;7.402;2022-11-02T09:59:41;0.98;;;0.65;;
43146;SDS011;28752;48.266;7.402;2022-11-02T10:10:36;0.98;;;0.28;;
43146;SDS011;28752;48.266;7.402;2022-11-02T10:15:44;1.40;;;0.63;;
43146;SDS011;28752;48.266;7.402;2022-11-02T10:20:49;0.73;;;0.30;;
43146;SDS011;28752;48.266;7.402;2022-11-02T10:23:23;2.08;;;0.85;;
43146;SDS011;28752;48.266;7.402;2022-11-02T10:25:52;1.08;;;0.38;;
43146;SDS011;28752;48.266;7.402;2022-11-02T10:28:26;0.40;;;0.40;;
43146;SDS011;28752;48.266;7.402;2022-11-02T10:30:55;3.22;;;0.90;;
43146;SDS011;28752;48.266;7.402;2022-11-02T10:33:24;1.60;;;0.43;;
43146;SDS011;28752;48.266;7.402;2022-11-02T10:36:01;0.28;;;0.28;;
43146;SDS011;28752;48.266;7.402;2022-11-02T10:41:51;1.45;;;0.50;;
43146;SDS011;28752;48.266;7.402;2022-11-02T10:44:34;0.90;;;0.40;;
43146;SDS011;28752;48.266;7.402;2022-11-02T10:47:10;2.20;;;0.63;;
43146;SDS011;28752;48.266;7.402;2022-11-02T10:52:43;0.73;;;0.43;;
43146;SDS011;28752;48.266;7.402;2022-11-02T10:55:33;0.85;;;0.32;;
43146;SDS011;28752;48.266;7.402;2022-11-02T10:58:07;2.42;;;0.52;;
43146;SDS011;28752;48.266;7.402;2022-11-02T11:00:37;0.88;;;0.40;;
43146;SDS011;28752;48.266;7.402;2022-11-02T11:03:13;0.68;;;0.50;;
43146;SDS011;28752;48.266;7.402;2022-11-02T11:08:25;0.10;;;0.10;;
43146;SDS011;28752;48.266;7.402;2022-11-02T11:11:07;1.27;;;0.50;;
43146;SDS011;28752;48.266;7.402;2022-11-02T11:13:34;0.50;;;0.20;;
43146;SDS011;28752;48.266;7.402;2022-11-02T11:16:00;1.55;;;0.90;;
43146;SDS011;28752;48.266;7.402;2022-11-02T11:18:27;2.47;;;0.93;;
43146;SDS011;28752;48.266;7.402;2022-11-02T11:23:20;0.38;;;0.22;;
43146;SDS011;28752;48.266;7.402;2022-11-02T11:33:45;1.27;;;0.32;;
43146;SDS011;28752;48.266;7.402;2022-11-02T11:36:23;1.02;;;0.57;;
43146;SDS011;28752;48.266;7.402;2022-11-02T11:38:52;0.30;;;0.20;;
43146;SDS011;28752;48.266;7.402;2022-11-02T11:41:20;1.23;;;0.50;;
43146;SDS011;28752;48.266;7.402;2022-11-02T11:43:46;0.75;;;0.40;;
43146;SDS011;28752;48.266;7.402;2022-11-02T11:46:14;3.20;;;0.40;;
43146;SDS011;28752;48.266;7.402;2022-11-02T11:48:53;1.25;;;0.43;;
43146;SDS011;28752;48.266;7.402;2022-11-02T11:51:38;0.52;;;0.40;;
43146;SDS011;28752;48.266;7.402;2022-11-02T11:54:27;0.75;;;0.60;;
43146;SDS011;28752;48.266;7.402;2022-11-02T11:56:54;2.30;;;0.45;;
43146;SDS011;28752;48.266;7.402;2022-11-02T11:59:25;1.05;;;0.55;;
43146;SDS011;28752;48.266;7.402;2022-11-02T12:01:56;0.65;;;0.40;;
43146;SDS011;28752;48.266;7.402;2022-11-02T12:04:26;0.35;;;0.08;;
43146;SDS011;28752;48.266;7.402;2022-11-02T12:07:05;0.55;;;0.32;;
43146;SDS011;28752;48.266;7.402;2022-11-02T12:14:53;1.25;;;0.50;;
43146;SDS011;28752;48.266;7.402;2022-11-02T12:17:42;3.78;;;0.80;;
43146;SDS011;28752;48.266;7.402;2022-11-02T12:20:26;1.63;;;0.35;;
43146;SDS011;28752;48.266;7.402;2022-11-02T12:28:09;0.75;;;0.50;;
43146;SDS011;28752;48.266;7.402;2022-11-02T12:36:17;0.55;;;0.32;;
43146;SDS011;28752;48.266;7.402;2022-11-02T12:54:57;0.75;;;0.30;;
43146;SDS011;28752;48.266;7.402;2022-11-02T12:57:30;0.95;;;0.43;;
43146;SDS011;28752;48.266;7.402;2022-11-02T13:00:03;1.23;;;0.20;;
43146;SDS011;28752;48.266;7.402;2022-11-02T13:05:26;3.83;;;0.75;;
43146;SDS011;28752;48.266;7.402;2022-11-02T13:08:04;0.17;;;0.10;;
43146;SDS011;28752;48.266;7.402;2022-11-02T13:10:49;3.10;;;0.82;;
43146;SDS011;28752;48.266;7.402;2022-11-02T13:16:02;1.20;;;0.47;;
43146;SDS011;28752;48.266;7.402;2022-11-02T13:18:41;1.63;;;0.70;;
43146;SDS011;28752;48.266;7.402;2022-11-02T13:21:11;2.13;;;0.65;;
43146;SDS011;28752;48.266;7.402;2022-11-02T13:23:45;0.90;;;0.30;;
43146;SDS011;28752;48.266;7.402;2022-11-02T13:28:53;0.45;;;0.22;;
43146;SDS011;28752;48.266;7.402;2022-11-02T13:36:39;0.50;;;0.30;;
43146;SDS011;28752;48.266;7.402;2022-11-02T13:39:14;0.17;;;0.17;;
43146;SDS011;28752;48.266;7.402;2022-11-02T13:50:11;0.40;;;0.10;;
43146;SDS011;28752;48.266;7.402;2022-11-02T13:52:42;1.02;;;0.50;;
43146;SDS011;28752;48.266;7.402;2022-11-02T13:55:17;1.95;;;0.52;;
43146;SDS011;28752;48.266;7.402;2022-11-02T13:57:46;1.13;;;0.50;;
43146;SDS011;28752;48.266;7.402;2022-11-02T14:02:49;0.43;;;0.30;;
43146;SDS011;28752;48.266;7.402;2022-11-02T14:05:42;1.50;;;0.60;;
43146;SDS011;28752;48.266;7.402;2022-11-02T14:08:07;1.55;;;0.60;;
43146;SDS011;28752;48.266;7.402;2022-11-02T14:10:36;1.10;;;0.30;;
43146;SDS011;28752;48.266;7.402;2022-11-02T14:13:03;0.73;;;0.30;;
43146;SDS011;28752;48.266;7.402;2022-11-02T14:25:49;0.20;;;0.10;;
43146;SDS011;28752;48.266;7.402;2022-11-02T14:34:22;0.67;;;0.50;;
43146;SDS011;28752;48.266;7.402;2022-11-02T14:47:42;3.75;;;0.50;;
43146;SDS011;28752;48.266;7.402;2022-11-02T14:52:36;1.63;;;0.60;;
43146;SDS011;28752;48.266;7.402;2022-11-02T14:55:03;0.28;;;0.20;;
43146;SDS011;28752;48.266;7.402;2022-11-02T14:57:39;2.15;;;0.70;;
43146;SDS011;28752;48.266;7.402;2022-11-02T15:02:46;0.85;;;0.20;;
43146;SDS011;28752;48.266;7.402;2022-11-02T15:07:50;2.78;;;0.70;;
43146;SDS011;28752;48.266;7.402;2022-11-02T15:12:46;1.35;;;0.70;;
43146;SDS011;28752;48.266;7.402;2022-11-02T15:15:31;0.60;;;0.43;;
43146;SDS011;28752;48.266;7.402;2022-11-02T15:24:22;0.68;;;0.40;;
43146;SDS011;28752;48.266;7.402;2022-11-02T15:26:25;0.68;;;0.40;;
43146;SDS011;28752;48.266;7.402;2022-11-02T15:29:04;0.55;;;0.20;;
43146;SDS011;28752;48.266;7.402;2022-11-02T15:31:35;1.17;;;0.85;;
43146;SDS011;28752;48.266;7.402;2022-11-02T15:34:09;1.40;;;0.50;;
43146;SDS011;28752;48.266;7.402;2022-11-02T15:36:41;1.15;;;0.77;;
43146;SDS011;28752;48.266;7.402;2022-11-02T15:39:08;0.52;;;0.20;;
43146;SDS011;28752;48.266;7.402;2022-11-02T15:41:43;0.98;;;0.57;;
43146;SDS011;28752;48.266;7.402;2022-11-02T15:52:55;0.93;;;0.50;;
43146;SDS011;28752;48.266;7.402;2022-11-02T16:01:25;1.30;;;0.40;;
43146;SDS011;28752;48.266;7.402;2022-11-02T16:03:58;1.45;;;0.47;;
43146;SDS011;28752;48.266;7.402;2022-11-02T16:06:28;2.20;;;0.40;;
43146;SDS011;28752;48.266;7.402;2022-11-02T16:08:57;3.90;;;0.93;;
43146;SDS011;28752;48.266;7.402;2022-11-02T16:11:24;1.40;;;0.32;;
43146;SDS011;28752;48.266;7.402;2022-11-02T16:13:50;0.10;;;0.10;;
43146;SDS011;28752;48.266;7.402;2022-11-02T16:16:19;1.60;;;0.60;;
43146;SDS011;28752;48.266;7.402;2022-11-02T16:18:49;1.58;;;0.65;;
43146;SDS011;28752;48.266;7.402;2022-11-02T16:21:17;0.85;;;0.28;;
43146;SDS011;28752;48.266;7.402;2022-11-02T16:23:45;0.40;;;0.20;;
43146;SDS011;28752;48.266;7.402;2022-11-02T16:26:14;0.60;;;0.20;;
43146;SDS011;28752;48.266;7.402;2022-11-02T16:28:46;1.33;;;0.90;;
43146;SDS011;28752;48.266;7.402;2022-11-02T16:31:14;1.92;;;0.93;;
43146;SDS011;28752;48.266;7.402;2022-11-02T16:36:16;2.75;;;0.30;;
43146;SDS011;28752;48.266;7.402;2022-11-02T16:39:05;1.58;;;0.75;;
43146;SDS011;28752;48.266;7.402;2022-11-02T16:41:40;7.60;;;2.40;;
43146;SDS011;28752;48.266;7.402;2022-11-02T16:46:48;5.18;;;2.00;;
43146;SDS011;28752;48.266;7.402;2022-11-02T16:49:32;5.90;;;3.00;;
43146;SDS011;28752;48.266;7.402;2022-11-02T16:52:56;5.55;;;2.38;;
43146;SDS011;28752;48.266;7.402;2022-11-02T16:55:27;13.48;;;5.22;;
43146;SDS011;28752;48.266;7.402;2022-11-02T16:57:59;6.18;;;3.05;;
43146;SDS011;28752;48.266;7.402;2022-11-02T17:00:26;7.28;;;3.67;;
43146;SDS011;28752;48.266;7.402;2022-11-02T17:02:52;6.13;;;2.67;;
43146;SDS011;28752;48.266;7.402;2022-11-02T17:05:24;9.57;;;4.50;;
43146;SDS011;28752;48.266;7.402;2022-11-02T17:07:56;6.07;;;2.80;;
43146;SDS011;28752;48.266;7.402;2022-11-02T17:10:25;5.97;;;3.03;;
43146;SDS011;28752;48.266;7.402;2022-11-02T17:12:53;3.65;;;1.67;;
43146;SDS011;28752;48.266;7.402;2022-11-02T17:15:21;4.47;;;1.88;;
43146;SDS011;28752;48.266;7.402;2022-11-02T17:17:48;6.68;;;3.28;;
43146;SDS011;28752;48.266;7.402;2022-11-02T17:20:16;6.47;;;2.42;;
43146;SDS011;28752;48.266;7.402;2022-11-02T17:22:51;15.90;;;2.97;;
43146;SDS011;28752;48.266;7.402;2022-11-02T17:25:45;6.55;;;3.10;;
43146;SDS011;28752;48.266;7.402;2022-11-02T17:28:39;16.73;;;7.78;;
43146;SDS011;28752;48.266;7.402;2022-11-02T17:31:17;7.97;;;3.60;;
43146;SDS011;28752;48.266;7.402;2022-11-02T17:33:45;8.52;;;4.20;;
43146;SDS011;28752;48.266;7.402;2022-11-02T17:38:38;7.68;;;4.55;;
43146;SDS011;28752;48.266;7.402;2022-11-02T17:41:03;6.80;;;3.05;;
43146;SDS011;28752;48.266;7.402;2022-11-02T17:43:49;5.25;;;2.42;;
43146;SDS011;28752;48.266;7.402;2022-11-02T17:46:15;9.48;;;4.03;;
43146;SDS011;28752;48.266;7.402;2022-11-02T17:48:40;4.97;;;2.70;;
43146;SDS011;28752;48.266;7.402;2022-11-02T17:51:09;6.23;;;4.10;;
43146;SDS011;28752;48.266;7.402;2022-11-02T17:53:36;6.68;;;2.95;;
43146;SDS011;28752;48.266;7.402;2022-11-02T17:56:02;7.53;;;3.38;;
43146;SDS011;28752;48.266;7.402;2022-11-02T17:58:28;6.68;;;2.80;;
43146;SDS011;28752;48.266;7.402;2022-11-02T18:00:53;8.70;;;3.23;;
43146;SDS011;28752;48.266;7.402;2022-11-02T18:03:19;5.65;;;2.90;;
43146;SDS011;28752;48.266;7.402;2022-11-02T18:05:45;5.90;;;2.42;;
43146;SDS011;28752;48.266;7.402;2022-11-02T18:10:38;4.45;;;1.75;;
43146;SDS011;28752;48.266;7.402;2022-11-02T18:13:05;5.75;;;1.95;;
43146;SDS011;28752;48.266;7.402;2022-11-02T18:15:31;2.10;;;0.98;;